sensor_id;sensor_type;location;lat;lon;timestamp;pressure;altitude;pressure_sealevel;temperature;humidity
5574;BME280;2563;52.242;7.956;2023-02-28T00:02:16;101395.47;;;-3.33;100.00
5574;BME280;2563;52.242;7.956;2023-02-28T00:04:43;101391.34;;;-3.32;100.00
5574;BME280;2563;52.242;7.956;2023-02-28T00:07:08;101381.69;;;-3.41;100.00
5574;BME280;2563;52.242;7.956;2023-02-28T00:09:33;101386.50;;;-3.46;100.00
5574;BME280;2563;52.242;7.956;2023-02-28T00:11:59;101383.16;;;-3.46;100.00
5574;BME280;2563;52.242;7.956;2023-02-28T00:14:24;101383.88;;;-3.49;100.00
5574;BME280;2563;52.242;7.956;2023-02-28T00:16:50;101385.56;;;-3.48;100.00
5574;BME280;2563;52.242;7.956;2023-02-28T00:19:15;101364.88;;;-3.42;100.00
5574;BME280;2563;52.242;7.956;2023-02-28T00:21:40;101361.28;;;-3.47;100.00
5574;BME280;2563;52.242;7.956;2023-02-28T00:24:06;101352.81;;;-3.49;100.00
5574;BME280;2563;52.242;7.956;2023-02-28T00:26:32;101359.44;;;-3.51;100.00
5574;BME280;2563;52.242;7.956;2023-02-28T00:28:57;101349.41;;;-3.50;100.00
5574;BME280;2563;52.242;7.956;2023-02-28T00:31:23;101345.91;;;-3.53;100.00
5574;BME280;2563;52.242;7.956;2023-02-28T00:33:48;101345.78;;;-3.56;100.00
5574;BME280;2563;52.242;7.956;2023-02-28T00:36:13;101347.22;;;-3.61;100.00
5574;BME280;2563;52.242;7.956;2023-02-28T00:38:40;101331.97;;;-3.65;100.00
5574;BME280;2563;52.242;7.956;2023-02-28T00:41:06;101331.97;;;-3.65;100.00
5574;BME280;2563;52.242;7.956;2023-02-28T00:43:33;101328.94;;;-3.57;100.00
5574;BME280;2563;52.242;7.956;2023-02-28T00:45:59;101323.13;;;-3.56;100.00
5574;BME280;2563;52.242;7.956;2023-02-28T00:48:25;101320.75;;;-3.71;100.00
5574;BME280;2563;52.242;7.956;2023-02-28T00:50:50;101308.13;;;-3.73;100.00
5574;BME280;2563;52.242;7.956;2023-02-28T00:53:16;101304.16;;;-3.68;100.00
5574;BME280;2563;52.242;7.956;2023-02-28T00:55:41;101303.53;;;-3.64;100.00
5574;BME280;2563;52.242;7.956;2023-02-28T00:58:06;101299.84;;;-3.70;100.00
5574;BME280;2563;52.242;7.956;2023-02-28T01:00:32;101299.94;;;-3.69;100.00
5574;BME280;2563;52.242;7.956;2023-02-28T01:02:57;101295.59;;;-3.53;100.00
5574;BME280;2563;52.242;7.956;2023-02-28T01:05:23;101280.22;;;-3.40;100.00
5574;BME280;2563;52.242;7.956;2023-02-28T01:07:48;101279.63;;;-3.54;100.00
5574;BME280;2563;52.242;7.956;2023-02-28T01:10:14;101274.25;;;-3.61;100.00
5574;BME280;2563;52.242;7.956;2023-02-28T01:12:39;101275.75;;;-3.65;100.00
5574;BME280;2563;52.242;7.956;2023-02-28T01:15:05;101269.75;;;-3.69;100.00
5574;BME280;2563;52.242;7.956;2023-02-28T01:17:30;101277.09;;;-3.73;100.00
5574;BME280;2563;52.242;7.956;2023-02-28T01:19:56;101270.25;;;-3.76;100.00
5574;BME280;2563;52.242;7.956;2023-02-28T01:22:21;101270.09;;;-3.79;100.00
5574;BME280;2563;52.242;7.956;2023-02-28T01:24:47;101261.19;;;-3.72;100.00
5574;BME280;2563;52.242;7.956;2023-02-28T01:27:12;101252.91;;;-3.70;100.00
5574;BME280;2563;52.242;7.956;2023-02-28T01:29:38;101248.75;;;-3.69;100.00
5574;BME280;2563;52.242;7.956;2023-02-28T01:32:04;101242.53;;;-3.58;100.00
5574;BME280;2563;52.242;7.956;2023-02-28T01:34:29;101240.88;;;-3.57;100.00
5574;BME280;2563;52.242;7.956;2023-02-28T01:36:54;101236.78;;;-3.55;100.00
5574;BME280;2563;52.242;7.956;2023-02-28T01:39:20;101232.69;;;-3.53;100.00
5574;BME280;2563;52.242;7.956;2023-02-28T01:41:45;101219.38;;;-3.51;100.00
5574;BME280;2563;52.242;7.956;2023-02-28T01:47:14;101219.38;;;-3.51;100.00
5574;BME280;2563;52.242;7.956;2023-02-28T01:49:39;101205.97;;;-3.50;100.00
5574;BME280;2563;52.242;7.956;2023-02-28T01:52:05;101204.28;;;-3.51;100.00
5574;BME280;2563;52.242;7.956;2023-02-28T01:54:33;101201.56;;;-3.55;100.00
5574;BME280;2563;52.242;7.956;2023-02-28T01:57:09;101196.53;;;-3.55;100.00
5574;BME280;2563;52.242;7.956;2023-02-28T01:59:54;101198.09;;;-3.57;100.00
5574;BME280;2563;52.242;7.956;2023-02-28T02:02:24;101195.19;;;-3.47;100.00
5574;BME280;2563;52.242;7.956;2023-02-28T02:04:51;101195.75;;;-3.35;100.00
5574;BME280;2563;52.242;7.956;2023-02-28T02:07:18;101183.06;;;-3.36;100.00
5574;BME280;2563;52.242;7.956;2023-02-28T02:09:44;101183.41;;;-3.48;100.00
5574;BME280;2563;52.242;7.956;2023-02-28T02:15:28;101171.13;;;-3.61;100.00
5574;BME280;2563;52.242;7.956;2023-02-28T02:18:05;101161.06;;;-3.61;100.00
5574;BME280;2563;52.242;7.956;2023-02-28T02:29:22;101159.44;;;-3.79;100.00
5574;BME280;2563;52.242;7.956;2023-02-28T02:32:11;101155.94;;;-3.82;100.00
5574;BME280;2563;52.242;7.956;2023-02-28T02:37:43;101163.00;;;-3.93;100.00
5574;BME280;2563;52.242;7.956;2023-02-28T02:42:50;101162.59;;;-4.02;100.00
5574;BME280;2563;52.242;7.956;2023-02-28T02:45:24;101167.69;;;-4.01;100.00
5574;BME280;2563;52.242;7.956;2023-02-28T02:47:51;101165.78;;;-4.07;100.00
5574;BME280;2563;52.242;7.956;2023-02-28T02:50:22;101168.50;;;-4.02;100.00
5574;BME280;2563;52.242;7.956;2023-02-28T02:52:52;101156.66;;;-4.04;100.00
5574;BME280;2563;52.242;7.956;2023-02-28T02:55:22;101159.59;;;-4.13;100.00
5574;BME280;2563;52.242;7.956;2023-02-28T02:57:51;101159.41;;;-4.18;100.00
5574;BME280;2563;52.242;7.956;2023-02-28T03:00:23;101156.88;;;-4.18;100.00
5574;BME280;2563;52.242;7.956;2023-02-28T03:02:52;101168.91;;;-4.30;100.00
5574;BME280;2563;52.242;7.956;2023-02-28T03:05:35;101162.84;;;-4.34;100.00
5574;BME280;2563;52.242;7.956;2023-02-28T03:08:05;101160.13;;;-4.38;100.00
5574;BME280;2563;52.242;7.956;2023-02-28T03:24:18;101167.59;;;-4.58;100.00
5574;BME280;2563;52.242;7.956;2023-02-28T03:26:52;101169.13;;;-4.61;100.00
5574;BME280;2563;52.242;7.956;2023-02-28T03:29:39;101167.25;;;-4.65;100.00
5574;BME280;2563;52.242;7.956;2023-02-28T03:32:21;101177.16;;;-4.68;100.00
5574;BME280;2563;52.242;7.956;2023-02-28T03:34:59;101179.16;;;-4.61;100.00
5574;BME280;2563;52.242;7.956;2023-02-28T03:37:31;101168.91;;;-4.66;100.00
5574;BME280;2563;52.242;7.956;2023-02-28T03:40:10;101173.78;;;-4.69;100.00
5574;BME280;2563;52.242;7.956;2023-02-28T03:42:39;101181.31;;;-4.69;100.00
5574;BME280;2563;52.242;7.956;2023-02-28T03:45:18;101172.84;;;-4.71;100.00
5574;BME280;2563;52.242;7.956;2023-02-28T03:50:18;101180.56;;;-4.84;100.00
5574;BME280;2563;52.242;7.956;2023-02-28T03:52:50;101169.09;;;-4.79;100.00
5574;BME280;2563;52.242;7.956;2023-02-28T03:55:16;101169.09;;;-4.79;100.00
5574;BME280;2563;52.242;7.956;2023-02-28T03:57:55;101169.09;;;-4.79;100.00
5574;BME280;2563;52.242;7.956;2023-02-28T04:00:27;101157.63;;;-4.74;100.00
5574;BME280;2563;52.242;7.956;2023-02-28T04:02:55;101165.66;;;-4.81;100.00
5574;BME280;2563;52.242;7.956;2023-02-28T04:05:22;101168.81;;;-4.85;100.00
5574;BME280;2563;52.242;7.956;2023-02-28T04:07:47;101169.59;;;-4.86;100.00
5574;BME280;2563;52.242;7.956;2023-02-28T04:10:14;101164.22;;;-4.94;100.00
5574;BME280;2563;52.242;7.956;2023-02-28T04:12:40;101176.66;;;-4.96;100.00
5574;BME280;2563;52.242;7.956;2023-02-28T04:15:06;101175.09;;;-4.94;100.00
5574;BME280;2563;52.242;7.956;2023-02-28T04:17:32;101175.09;;;-4.94;100.00
5574;BME280;2563;52.242;7.956;2023-02-28T04:19:57;101184.06;;;-4.99;100.00
5574;BME280;2563;52.242;7.956;2023-02-28T04:22:23;101171.22;;;-5.05;100.00
5574;BME280;2563;52.242;7.956;2023-02-28T04:24:51;101185.34;;;-5.07;100.00
5574;BME280;2563;52.242;7.956;2023-02-28T04:27:18;101177.78;;;-4.90;100.00
5574;BME280;2563;52.242;7.956;2023-02-28T04:29:44;101167.06;;;-4.86;100.00
5574;BME280;2563;52.242;7.956;2023-02-28T04:32:10;101171.22;;;-5.05;100.00
5574;BME280;2563;52.242;7.956;2023-02-28T04:34:35;101175.06;;;-5.11;100.00
5574;BME280;2563;52.242;7.956;2023-02-28T04:37:01;101179.72;;;-5.19;100.00
5574;BME280;2563;52.242;7.956;2023-02-28T04:39:26;101178.84;;;-5.20;100.00
5574;BME280;2563;52.242;7.956;2023-02-28T04:41:52;101177.94;;;-5.22;100.00
5574;BME280;2563;52.242;7.956;2023-02-28T04:44:17;101177.75;;;-5.25;100.00
5574;BME280;2563;52.242;7.956;2023-02-28T04:46:43;101167.19;;;-5.19;100.00
5574;BME280;2563;52.242;7.956;2023-02-28T04:49:11;101180.34;;;-5.23;100.00
5574;BME280;2563;52.242;7.956;2023-02-28T04:51:37;101179.41;;;-5.25;100.00
5574;BME280;2563;52.242;7.956;2023-02-28T04:54:02;101180.03;;;-5.29;100.00
5574;BME280;2563;52.242;7.956;2023-02-28T04:56:28;101178.66;;;-5.24;100.00
5574;BME280;2563;52.242;7.956;2023-02-28T04:58:53;101171.88;;;-5.25;100.00
5574;BME280;2563;52.242;7.956;2023-02-28T05:01:31;101172.59;;;-5.28;100.00
5574;BME280;2563;52.242;7.956;2023-02-28T05:03:59;101179.59;;;-5.39;100.00
5574;BME280;2563;52.242;7.956;2023-02-28T05:06:26;101177.56;;;-5.46;100.00
5574;BME280;2563;52.242;7.956;2023-02-28T05:08:52;101184.16;;;-5.48;100.00
5574;BME280;2563;52.242;7.956;2023-02-28T05:11:30;101179.28;;;-5.45;100.00
5574;BME280;2563;52.242;7.956;2023-02-28T05:14:01;101180.06;;;-5.46;100.00
5574;BME280;2563;52.242;7.956;2023-02-28T05:16:27;101183.72;;;-5.56;100.00
5574;BME280;2563;52.242;7.956;2023-02-28T05:18:52;101194.78;;;-5.52;100.00
5574;BME280;2563;52.242;7.956;2023-02-28T05:21:28;101202.63;;;-5.62;100.00
5574;BME280;2563;52.242;7.956;2023-02-28T05:23:55;101203.59;;;-5.60;100.00
5574;BME280;2563;52.242;7.956;2023-02-28T05:26:21;101206.16;;;-5.59;100.00
5574;BME280;2563;52.242;7.956;2023-02-28T05:28:46;101205.38;;;-5.58;100.00
5574;BME280;2563;52.242;7.956;2023-02-28T05:31:12;101200.44;;;-5.56;100.00
5574;BME280;2563;52.242;7.956;2023-02-28T05:33:37;101201.28;;;-5.56;100.00
5574;BME280;2563;52.242;7.956;2023-02-28T05:36:03;101200.19;;;-5.44;100.00
5574;BME280;2563;52.242;7.956;2023-02-28T05:38:29;101198.88;;;-5.38;100.00
5574;BME280;2563;52.242;7.956;2023-02-28T05:40:54;101204.88;;;-5.34;100.00
5574;BME280;2563;52.242;7.956;2023-02-28T05:43:20;101195.09;;;-5.29;100.00
5574;BME280;2563;52.242;7.956;2023-02-28T05:45:45;101192.91;;;-5.23;100.00
5574;BME280;2563;52.242;7.956;2023-02-28T05:48:11;101200.44;;;-5.23;100.00
5574;BME280;2563;52.242;7.956;2023-02-28T05:50:37;101200.09;;;-5.13;100.00
5574;BME280;2563;52.242;7.956;2023-02-28T05:53:02;101201.75;;;-5.14;100.00
5574;BME280;2563;52.242;7.956;2023-02-28T05:55:28;101198.53;;;-5.11;100.00
5574;BME280;2563;52.242;7.956;2023-02-28T05:57:53;101185.84;;;-5.14;100.00
5574;BME280;2563;52.242;7.956;2023-02-28T06:00:19;101195.41;;;-5.23;100.00
5574;BME280;2563;52.242;7.956;2023-02-28T06:02:45;101201.59;;;-5.33;100.00
5574;BME280;2563;52.242;7.956;2023-02-28T06:05:15;101199.00;;;-5.35;100.00
5574;BME280;2563;52.242;7.956;2023-02-28T06:07:41;101201.53;;;-5.35;100.00
5574;BME280;2563;52.242;7.956;2023-02-28T06:10:08;101205.13;;;-5.29;100.00
5574;BME280;2563;52.242;7.956;2023-02-28T06:12:34;101199.81;;;-5.36;100.00
5574;BME280;2563;52.242;7.956;2023-02-28T06:14:59;101199.19;;;-5.31;100.00
5574;BME280;2563;52.242;7.956;2023-02-28T06:17:25;101198.78;;;-5.39;100.00
5574;BME280;2563;52.242;7.956;2023-02-28T06:19:50;101199.56;;;-5.40;100.00
5574;BME280;2563;52.242;7.956;2023-02-28T06:22:16;101201.84;;;-5.45;100.00
5574;BME280;2563;52.242;7.956;2023-02-28T06:24:41;101201.06;;;-5.44;100.00
5574;BME280;2563;52.242;7.956;2023-02-28T06:27:06;101196.91;;;-5.43;100.00
5574;BME280;2563;52.242;7.956;2023-02-28T06:29:33;101198.53;;;-5.44;100.00
5574;BME280;2563;52.242;7.956;2023-02-28T06:31:59;101199.50;;;-5.42;100.00
5574;BME280;2563;52.242;7.956;2023-02-28T06:34:24;101205.59;;;-5.37;100.00
5574;BME280;2563;52.242;7.956;2023-02-28T06:36:51;101204.97;;;-5.32;100.00
5574;BME280;2563;52.242;7.956;2023-02-28T06:39:17;101195.97;;;-5.29;100.00
5574;BME280;2563;52.242;7.956;2023-02-28T06:41:42;101202.00;;;-5.25;100.00
5574;BME280;2563;52.242;7.956;2023-02-28T06:44:17;101201.38;;;-5.21;100.00
5574;BME280;2563;52.242;7.956;2023-02-28T06:46:44;101198.97;;;-5.02;100.00
5574;BME280;2563;52.242;7.956;2023-02-28T06:49:10;101196.94;;;-4.93;100.00
5574;BME280;2563;52.242;7.956;2023-02-28T06:51:38;101189.03;;;-4.82;100.00
5574;BME280;2563;52.242;7.956;2023-02-28T06:54:04;101190.44;;;-4.71;100.00
5574;BME280;2563;52.242;7.956;2023-02-28T06:56:30;101187.66;;;-4.59;100.00
5574;BME280;2563;52.242;7.956;2023-02-28T06:58:55;101190.50;;;-4.52;100.00
5574;BME280;2563;52.242;7.956;2023-02-28T07:01:21;101182.47;;;-4.44;100.00
5574;BME280;2563;52.242;7.956;2023-02-28T07:03:50;101186.50;;;-4.30;100.00
5574;BME280;2563;52.242;7.956;2023-02-28T07:06:21;101170.84;;;-4.05;100.00
5574;BME280;2563;52.242;7.956;2023-02-28T07:08:48;101161.19;;;-3.78;100.00
5574;BME280;2563;52.242;7.956;2023-02-28T07:11:14;101154.28;;;-3.63;100.00
5574;BME280;2563;52.242;7.956;2023-02-28T07:13:39;101150.81;;;-3.45;100.00
5574;BME280;2563;52.242;7.956;2023-02-28T07:16:07;101149.09;;;-3.27;100.00
5574;BME280;2563;52.242;7.956;2023-02-28T07:18:34;101142.88;;;-3.14;100.00
5574;BME280;2563;52.242;7.956;2023-02-28T07:21:02;101135.84;;;-3.02;100.00
5574;BME280;2563;52.242;7.956;2023-02-28T07:23:28;101120.16;;;-2.73;100.00
5574;BME280;2563;52.242;7.956;2023-02-28T07:25:53;101114.78;;;-2.38;100.00
5574;BME280;2563;52.242;7.956;2023-02-28T07:28:18;101095.91;;;-2.02;100.00
5574;BME280;2563;52.242;7.956;2023-02-28T07:30:44;101092.00;;;-1.70;100.00
5574;BME280;2563;52.242;7.956;2023-02-28T07:33:09;101080.41;;;-1.39;100.00
5574;BME280;2563;52.242;7.956;2023-02-28T07:35:35;101068.06;;;-1.04;100.00
5574;BME280;2563;52.242;7.956;2023-02-28T07:38:01;101065.44;;;-0.80;100.00
5574;BME280;2563;52.242;7.956;2023-02-28T07:40:26;101057.38;;;-0.67;100.00
5574;BME280;2563;52.242;7.956;2023-02-28T07:42:52;101053.66;;;-0.51;100.00
5574;BME280;2563;52.242;7.956;2023-02-28T07:45:17;101047.97;;;-0.14;100.00
5574;BME280;2563;52.242;7.956;2023-02-28T07:47:43;101041.09;;;0.12;100.00
5574;BME280;2563;52.242;7.956;2023-02-28T07:50:12;101033.44;;;0.44;100.00
5574;BME280;2563;52.242;7.956;2023-02-28T07:52:39;101040.59;;;0.60;100.00
5574;BME280;2563;52.242;7.956;2023-02-28T07:55:06;101037.63;;;0.77;100.00
5574;BME280;2563;52.242;7.956;2023-02-28T07:57:32;101040.34;;;0.86;100.00
5574;BME280;2563;52.242;7.956;2023-02-28T07:59:57;101037.50;;;1.09;100.00
5574;BME280;2563;52.242;7.956;2023-02-28T08:02:23;101045.16;;;1.12;100.00
5574;BME280;2563;52.242;7.956;2023-02-28T08:04:48;101055.63;;;1.25;100.00
5574;BME280;2563;52.242;7.956;2023-02-28T08:07:15;101044.72;;;1.72;100.00
5574;BME280;2563;52.242;7.956;2023-02-28T08:09:41;101047.09;;;2.07;100.00
5574;BME280;2563;52.242;7.956;2023-02-28T08:12:07;101049.31;;;2.36;100.00
5574;BME280;2563;52.242;7.956;2023-02-28T08:14:34;101056.41;;;2.55;100.00
5574;BME280;2563;52.242;7.956;2023-02-28T08:16:59;101069.44;;;2.75;100.00
5574;BME280;2563;52.242;7.956;2023-02-28T08:19:25;101089.09;;;2.84;100.00
5574;BME280;2563;52.242;7.956;2023-02-28T08:21:50;101115.47;;;2.92;100.00
5574;BME280;2563;52.242;7.956;2023-02-28T08:24:15;101112.00;;;3.41;100.00
5574;BME280;2563;52.242;7.956;2023-02-28T08:26:41;101153.56;;;3.40;100.00
5574;BME280;2563;52.242;7.956;2023-02-28T08:29:06;101167.50;;;3.67;100.00
5574;BME280;2563;52.242;7.956;2023-02-28T08:31:32;101182.94;;;3.79;100.00
5574;BME280;2563;52.242;7.956;2023-02-28T08:33:57;101206.34;;;4.16;100.00
5574;BME280;2563;52.242;7.956;2023-02-28T08:36:25;101247.25;;;4.27;100.00
5574;BME280;2563;52.242;7.956;2023-02-28T08:38:51;101281.66;;;4.60;100.00
5574;BME280;2563;52.242;7.956;2023-02-28T08:41:17;101338.34;;;4.42;100.00
5574;BME280;2563;52.242;7.956;2023-02-28T08:43:42;101358.38;;;4.78;100.00
5574;BME280;2563;52.242;7.956;2023-02-28T08:46:08;101409.66;;;5.00;100.00
5574;BME280;2563;52.242;7.956;2023-02-28T08:48:36;101450.84;;;5.27;100.00
5574;BME280;2563;52.242;7.956;2023-02-28T08:51:13;101501.94;;;5.30;100.00
5574;BME280;2563;52.242;7.956;2023-02-28T08:53:39;101537.91;;;5.50;100.00
5574;BME280;2563;52.242;7.956;2023-02-28T08:56:10;101610.63;;;5.16;100.00
5574;BME280;2563;52.242;7.956;2023-02-28T08:58:36;101647.78;;;5.55;100.00
5574;BME280;2563;52.242;7.956;2023-02-28T09:01:10;101716.59;;;5.46;100.00
5574;BME280;2563;52.242;7.956;2023-02-28T09:03:37;101762.63;;;5.49;100.00
5574;BME280;2563;52.242;7.956;2023-02-28T09:06:03;101791.25;;;5.83;100.00
5574;BME280;2563;52.242;7.956;2023-02-28T09:08:30;101863.88;;;5.47;100.00
5574;BME280;2563;52.242;7.956;2023-02-28T09:10:56;101886.69;;;5.85;100.00
5574;BME280;2563;52.242;7.956;2023-02-28T09:13:26;101901.56;;;6.07;100.00
5574;BME280;2563;52.242;7.956;2023-02-28T09:15:52;101913.28;;;6.49;100.00
5574;BME280;2563;52.242;7.956;2023-02-28T09:18:18;101952.56;;;6.51;100.00
5574;BME280;2563;52.242;7.956;2023-02-28T09:20:43;101985.06;;;6.58;100.00
5574;BME280;2563;52.242;7.956;2023-02-28T09:23:11;102019.88;;;6.50;100.00
5574;BME280;2563;52.242;7.956;2023-02-28T09:25:45;102094.97;;;5.66;100.00
5574;BME280;2563;52.242;7.956;2023-02-28T09:28:10;102118.81;;;5.66;100.00
5574;BME280;2563;52.242;7.956;2023-02-28T09:30:36;102087.41;;;6.58;100.00
5574;BME280;2563;52.242;7.956;2023-02-28T09:33:02;102097.63;;;7.12;100.00
5574;BME280;2563;52.242;7.956;2023-02-28T09:35:27;102125.72;;;7.09;100.00
5574;BME280;2563;52.242;7.956;2023-02-28T09:37:53;102137.25;;;7.37;100.00
5574;BME280;2563;52.242;7.956;2023-02-28T09:40:22;102180.59;;;7.23;100.00
5574;BME280;2563;52.242;7.956;2023-02-28T09:42:51;102177.16;;;7.80;100.00
5574;BME280;2563;52.242;7.956;2023-02-28T09:45:26;102225.22;;;7.37;100.00
5574;BME280;2563;52.242;7.956;2023-02-28T09:47:56;102249.94;;;7.34;100.00
5574;BME280;2563;52.242;7.956;2023-02-28T09:50:38;102243.41;;;8.14;100.00
5574;BME280;2563;52.242;7.956;2023-02-28T09:53:19;102236.41;;;8.67;100.00
5574;BME280;2563;52.242;7.956;2023-02-28T09:55:50;102283.06;;;7.76;100.00
5574;BME280;2563;52.242;7.956;2023-02-28T09:58:42;102262.00;;;8.61;100.00
5574;BME280;2563;52.242;7.956;2023-02-28T10:01:31;102299.31;;;7.77;100.00
5574;BME280;2563;52.242;7.956;2023-02-28T10:04:27;102287.84;;;8.09;100.00
5574;BME280;2563;52.242;7.956;2023-02-28T10:06:58;102294.06;;;7.71;100.00
5574;BME280;2563;52.242;7.956;2023-02-28T10:09:30;102287.91;;;8.16;100.00
5574;BME280;2563;52.242;7.956;2023-02-28T10:12:03;102277.19;;;8.43;100.00
5574;BME280;2563;52.242;7.956;2023-02-28T10:14:32;102300.47;;;7.96;100.00
5574;BME280;2563;52.242;7.956;2023-02-28T10:17:08;102293.78;;;8.07;100.00
5574;BME280;2563;52.242;7.956;2023-02-28T10:19:42;102306.28;;;7.87;100.00
5574;BME280;2563;52.242;7.956;2023-02-28T10:22:16;102301.50;;;8.08;100.00
5574;BME280;2563;52.242;7.956;2023-02-28T10:24:47;102313.81;;;7.75;100.00
5574;BME280;2563;52.242;7.956;2023-02-28T10:27:25;102340.88;;;7.59;100.00
5574;BME280;2563;52.242;7.956;2023-02-28T10:29:53;102302.13;;;8.53;100.00
5574;BME280;2563;52.242;7.956;2023-02-28T10:32:22;102292.69;;;8.52;100.00
5574;BME280;2563;52.242;7.956;2023-02-28T10:34:57;102304.28;;;8.25;100.00
5574;BME280;2563;52.242;7.956;2023-02-28T10:37:23;102301.16;;;8.45;100.00
5574;BME280;2563;52.242;7.956;2023-02-28T10:39:48;102293.03;;;8.80;100.00
5574;BME280;2563;52.242;7.956;2023-02-28T10:42:29;102345.41;;;7.75;100.00
5574;BME280;2563;52.242;7.956;2023-02-28T10:45:13;102366.28;;;7.46;100.00
5574;BME280;2563;52.242;7.956;2023-02-28T10:47:51;102380.50;;;7.76;100.00
5574;BME280;2563;52.242;7.956;2023-02-28T10:52:55;102390.16;;;8.46;100.00
5574;BME280;2563;52.242;7.956;2023-02-28T10:55:30;102375.59;;;8.46;100.00
5574;BME280;2563;52.242;7.956;2023-02-28T10:57:56;102373.00;;;8.45;100.00
5574;BME280;2563;52.242;7.956;2023-02-28T11:00:24;102379.19;;;8.58;100.00
5574;BME280;2563;52.242;7.956;2023-02-28T11:02:51;102380.38;;;8.83;100.00
5574;BME280;2563;52.242;7.956;2023-02-28T11:07:52;102401.28;;;7.95;100.00
5574;BME280;2563;52.242;7.956;2023-02-28T11:10:20;102413.44;;;8.05;100.00
5574;BME280;2563;52.242;7.956;2023-02-28T11:12:46;102431.19;;;7.93;100.00
5574;BME280;2563;52.242;7.956;2023-02-28T11:15:26;102435.34;;;7.87;100.00
5574;BME280;2563;52.242;7.956;2023-02-28T11:20:25;102446.25;;;8.24;100.00
5574;BME280;2563;52.242;7.956;2023-02-28T11:22:52;102453.97;;;7.77;100.00
5574;BME280;2563;52.242;7.956;2023-02-28T11:25:25;102456.94;;;8.52;100.00
5574;BME280;2563;52.242;7.956;2023-02-28T11:27:54;102470.84;;;8.13;100.00
5574;BME280;2563;52.242;7.956;2023-02-28T11:30:28;102476.00;;;8.15;100.00
5574;BME280;2563;52.242;7.956;2023-02-28T11:32:54;102469.19;;;7.24;100.00
5574;BME280;2563;52.242;7.956;2023-02-28T11:35:33;102467.72;;;8.84;100.00
5574;BME280;2563;52.242;7.956;2023-02-28T11:38:00;102460.66;;;8.71;100.00
5574;BME280;2563;52.242;7.956;2023-02-28T11:40:36;102465.63;;;8.57;100.00
5574;BME280;2563;52.242;7.956;2023-02-28T11:43:30;102463.28;;;8.74;100.00
5574;BME280;2563;52.242;7.956;2023-02-28T11:51:22;102465.09;;;9.48;100.00
5574;BME280;2563;52.242;7.956;2023-02-28T11:56:37;102453.28;;;8.94;100.00
5574;BME280;2563;52.242;7.956;2023-02-28T12:02:29;102454.97;;;8.36;100.00
5574;BME280;2563;52.242;7.956;2023-02-28T12:05:09;102451.72;;;9.05;100.00
5574;BME280;2563;52.242;7.956;2023-02-28T12:10:26;102438.94;;;9.11;100.00
5574;BME280;2563;52.242;7.956;2023-02-28T12:13:21;102437.59;;;9.41;100.00
5574;BME280;2563;52.242;7.956;2023-02-28T12:21:47;102425.47;;;8.64;100.00
5574;BME280;2563;52.242;7.956;2023-02-28T12:27:01;102419.06;;;7.84;100.00
5574;BME280;2563;52.242;7.956;2023-02-28T12:29:30;102423.59;;;7.99;100.00
5574;BME280;2563;52.242;7.956;2023-02-28T12:32:03;102408.25;;;9.24;100.00
5574;BME280;2563;52.242;7.956;2023-02-28T12:34:37;102411.22;;;8.86;100.00
5574;BME280;2563;52.242;7.956;2023-02-28T12:37:10;102402.59;;;8.81;100.00
5574;BME280;2563;52.242;7.956;2023-02-28T12:39:41;102409.59;;;8.31;100.00
5574;BME280;2563;52.242;7.956;2023-02-28T12:44:55;102398.53;;;8.36;100.00
5574;BME280;2563;52.242;7.956;2023-02-28T12:47:23;102387.13;;;8.18;100.00
5574;BME280;2563;52.242;7.956;2023-02-28T12:49:53;102385.53;;;8.86;100.00
5574;BME280;2563;52.242;7.956;2023-02-28T12:52:32;102388.22;;;8.95;100.00
5574;BME280;2563;52.242;7.956;2023-02-28T13:09:11;102373.94;;;8.48;100.00
5574;BME280;2563;52.242;7.956;2023-02-28T13:11:44;102366.44;;;8.65;100.00
5574;BME280;2563;52.242;7.956;2023-02-28T13:14:37;102354.25;;;8.49;100.00
5574;BME280;2563;52.242;7.956;2023-02-28T13:19:33;102353.00;;;8.22;100.00
5574;BME280;2563;52.242;7.956;2023-02-28T13:22:00;102350.72;;;8.42;100.00
5574;BME280;2563;52.242;7.956;2023-02-28T13:29:39;102358.44;;;8.41;100.00
5574;BME280;2563;52.242;7.956;2023-02-28T13:43:00;102357.25;;;8.20;100.00
5574;BME280;2563;52.242;7.956;2023-02-28T13:45:28;102365.66;;;8.10;100.00
5574;BME280;2563;52.242;7.956;2023-02-28T13:48:05;102356.88;;;7.96;100.00
5574;BME280;2563;52.242;7.956;2023-02-28T13:50:40;102358.31;;;7.78;100.00
5574;BME280;2563;52.242;7.956;2023-02-28T13:55:46;102360.72;;;8.25;100.00
5574;BME280;2563;52.242;7.956;2023-02-28T14:06:54;102366.59;;;8.17;100.00
5574;BME280;2563;52.242;7.956;2023-02-28T14:09:41;102359.66;;;8.11;100.00
5574;BME280;2563;52.242;7.956;2023-02-28T14:17:59;102348.31;;;7.97;100.00
5574;BME280;2563;52.242;7.956;2023-02-28T14:20:29;102341.91;;;7.69;100.00
5574;BME280;2563;52.242;7.956;2023-02-28T14:23:12;102342.97;;;7.31;100.00
5574;BME280;2563;52.242;7.956;2023-02-28T14:25:59;102330.00;;;7.72;100.00
5574;BME280;2563;52.242;7.956;2023-02-28T14:31:13;102329.47;;;6.94;100.00
5574;BME280;2563;52.242;7.956;2023-02-28T14:34:03;102325.63;;;6.74;100.00
5574;BME280;2563;52.242;7.956;2023-02-28T14:36:37;102317.72;;;7.06;100.00
5574;BME280;2563;52.242;7.956;2023-02-28T14:39:07;102329.94;;;7.19;100.00
5574;BME280;2563;52.242;7.956;2023-02-28T14:41:39;102317.00;;;6.69;100.00
5574;BME280;2563;52.242;7.956;2023-02-28T14:44:19;102318.16;;;6.42;100.00
5574;BME280;2563;52.242;7.956;2023-02-28T14:46:48;102311.44;;;6.47;100.00
5574;BME280;2563;52.242;7.956;2023-02-28T14:49:29;102321.34;;;7.17;100.00
5574;BME280;2563;52.242;7.956;2023-02-28T14:54:39;102322.25;;;6.75;100.00
5574;BME280;2563;52.242;7.956;2023-02-28T14:57:05;102322.66;;;6.96;100.00
5574;BME280;2563;52.242;7.956;2023-02-28T14:59:34;102316.25;;;6.73;100.00
5574;BME280;2563;52.242;7.956;2023-02-28T15:02:34;102310.72;;;6.95;100.00
5574;BME280;2563;52.242;7.956;2023-02-28T15:07:48;102321.31;;;7.14;100.00
5574;BME280;2563;52.242;7.956;2023-02-28T15:10:21;102331.19;;;7.41;100.00
5574;BME280;2563;52.242;7.956;2023-02-28T15:13:00;102325.06;;;6.87;100.00
5574;BME280;2563;52.242;7.956;2023-02-28T15:15:49;102324.03;;;6.79;100.00
5574;BME280;2563;52.242;7.956;2023-02-28T15:18:30;102325.25;;;6.55;100.00
5574;BME280;2563;52.242;7.956;2023-02-28T15:21:11;102315.16;;;6.62;100.00
5574;BME280;2563;52.242;7.956;2023-02-28T15:23:38;102323.28;;;6.42;100.00
5574;BME280;2563;52.242;7.956;2023-02-28T15:26:06;102328.19;;;6.33;100.00